Time;durP1;ratioP1;P1;durP2;ratioP2;P2;SDS_P1;SDS_P2;PMS_P1;PMS_P2;Temp;Humidity;BMP_temperature;BMP_pressure;BME280_temperature;BME280_humidity;BME280_pressure;Samples;Min_cycle;Max_cycle;Signal;HPM_P1;HPM_P2
2022/07/26 00:01:21;;;;;;;8.63;4.40;;;29.10;55.70;;;;;;5039955;28;20198;-75
2022/07/26 00:03:50;;;;;;;11.32;4.10;;;29.20;55.70;;;;;;5036618;28;20203;-76
2022/07/26 00:06:19;;;;;;;8.13;4.32;;;29.10;55.80;;;;;;5041669;28;20230;-77
2022/07/26 00:08:48;;;;;;;7.75;4.05;;;29.10;55.80;;;;;;5038664;28;20218;-78
2022/07/26 00:11:19;;;;;;;8.18;4.18;;;29.10;55.80;;;;;;5035738;28;20191;-75
2022/07/26 00:13:54;;;;;;;7.15;4.35;;;29.00;55.80;;;;;;5040130;28;20199;-77
2022/07/26 00:16:22;;;;;;;7.20;3.97;;;29.00;55.90;;;;;;5041384;28;20187;-77
2022/07/26 00:18:51;;;;;;;8.45;4.32;;;29.00;55.90;;;;;;5034364;28;20202;-77
2022/07/26 00:21:19;;;;;;;5.22;3.95;;;29.00;55.90;;;;;;5034415;28;20199;-77
2022/07/26 00:23:47;;;;;;;9.05;4.57;;;28.90;56.00;;;;;;5042010;28;20187;-77
2022/07/26 00:26:16;;;;;;;8.32;4.00;;;28.90;56.10;;;;;;5038762;28;20211;-77
2022/07/26 00:28:46;;;;;;;7.80;4.22;;;28.90;56.20;;;;;;5038127;28;20206;-77
2022/07/26 00:31:14;;;;;;;9.05;4.20;;;28.90;56.30;;;;;;5038804;28;20203;-77
2022/07/26 00:33:43;;;;;;;9.73;4.60;;;28.90;56.30;;;;;;5033297;28;20202;-77
2022/07/26 00:36:11;;;;;;;7.38;4.30;;;28.80;56.40;;;;;;5035196;28;20650;-77
2022/07/26 00:38:40;;;;;;;6.82;4.00;;;28.90;56.60;;;;;;5037151;28;20202;-77
2022/07/26 00:41:09;;;;;;;8.40;4.35;;;28.80;56.60;;;;;;5031676;28;20833;-77
2022/07/26 00:43:37;;;;;;;9.13;4.78;;;28.80;56.80;;;;;;5036188;28;20206;-76
2022/07/26 00:46:07;;;;;;;8.60;3.97;;;28.80;57.10;;;;;;5040778;28;20210;-75
2022/07/26 00:48:36;;;;;;;7.07;4.00;;;28.70;57.10;;;;;;5039056;28;20576;-75
2022/07/26 00:51:04;;;;;;;10.32;4.55;;;28.70;57.10;;;;;;5037490;28;20853;-75
2022/07/26 00:53:33;;;;;;;6.43;4.30;;;28.70;57.20;;;;;;5036265;28;20203;-76
2022/07/26 00:56:01;;;;;;;7.13;4.18;;;28.60;57.30;;;;;;5040643;28;20267;-74
2022/07/26 00:58:29;;;;;;;6.05;4.15;;;28.60;57.30;;;;;;5033832;28;20207;-74
2022/07/26 01:00:58;;;;;;;9.80;4.55;;;28.60;57.50;;;;;;5041267;28;20214;-75
2022/07/26 01:03:28;;;;;;;7.70;4.80;;;28.50;57.50;;;;;;5035058;28;20585;-74
2022/07/26 01:06:07;;;;;;;10.50;5.07;;;28.50;57.70;;;;;;5040301;28;20318;-76
2022/07/26 01:08:35;;;;;;;9.05;4.65;;;28.50;57.90;;;;;;5036641;28;20199;-74
2022/07/26 01:11:04;;;;;;;8.20;4.30;;;28.50;58.10;;;;;;5042209;28;20206;-75
2022/07/26 01:13:33;;;;;;;9.82;5.03;;;28.40;58.30;;;;;;5033024;28;20325;-75
2022/07/26 01:16:03;;;;;;;7.88;5.38;;;28.40;58.40;;;;;;5041607;28;20700;-75
2022/07/26 01:18:33;;;;;;;11.20;5.25;;;28.30;58.70;;;;;;5039759;28;20241;-74
2022/07/26 01:21:03;;;;;;;8.07;4.60;;;28.30;58.80;;;;;;5035053;28;20195;-75
2022/07/26 01:23:43;;;;;;;9.02;4.90;;;28.30;59.00;;;;;;5035553;28;20253;-74
2022/07/26 01:26:12;;;;;;;8.80;5.65;;;28.20;59.90;;;;;;5039219;28;20210;-76
2022/07/26 01:28:43;;;;;;;8.60;4.95;;;28.20;59.60;;;;;;5039523;28;20199;-77
2022/07/26 01:31:12;;;;;;;7.57;5.07;;;28.10;59.70;;;;;;5034699;28;20712;-77
2022/07/26 01:33:40;;;;;;;8.13;4.90;;;28.10;60.00;;;;;;5037937;28;20233;-78
2022/07/26 01:36:11;;;;;;;10.13;4.68;;;28.00;60.10;;;;;;5038350;28;20191;-78
2022/07/26 01:38:40;;;;;;;10.70;5.18;;;28.00;60.00;;;;;;5043249;28;20191;-78
2022/07/26 01:41:10;;;;;;;7.75;4.82;;;27.90;60.10;;;;;;5042544;28;20202;-78
2022/07/26 01:43:38;;;;;;;8.00;4.63;;;27.90;60.30;;;;;;5028905;28;20206;-77
2022/07/26 01:46:08;;;;;;;12.00;5.50;;;27.80;60.20;;;;;;5038670;28;20218;-78
2022/07/26 01:48:37;;;;;;;10.30;5.10;;;27.80;60.40;;;;;;5043118;28;20198;-79
2022/07/26 01:51:05;;;;;;;7.78;4.53;;;27.80;60.40;;;;;;5034012;28;20210;-78
2022/07/26 01:53:34;;;;;;;6.75;4.90;;;27.70;60.40;;;;;;5042725;28;20198;-78
2022/07/26 01:56:02;;;;;;;6.20;4.53;;;27.70;60.50;;;;;;5037327;28;20188;-79
2022/07/26 01:58:32;;;;;;;8.18;4.60;;;27.70;60.60;;;;;;5038124;28;20202;-79
2022/07/26 02:01:00;;;;;;;7.10;4.78;;;27.60;60.50;;;;;;5043710;28;20199;-78
2022/07/26 02:03:29;;;;;;;8.35;4.78;;;27.60;60.60;;;;;;5040335;28;20206;-78
2022/07/26 02:05:57;;;;;;;6.82;4.45;;;27.60;60.60;;;;;;5035688;28;20262;-79
2022/07/26 02:08:26;;;;;;;6.93;5.00;;;27.60;60.80;;;;;;5043617;28;20214;-78
2022/07/26 02:11:01;;;;;;;8.93;4.60;;;27.50;60.70;;;;;;5035398;28;20203;-77
2022/07/26 02:13:34;;;;;;;8.27;4.90;;;27.50;60.70;;;;;;5034845;28;20804;-77
2022/07/26 02:16:04;;;;;;;8.80;5.22;;;27.50;61.00;;;;;;5039592;28;20230;-78
2022/07/26 02:18:33;;;;;;;8.50;4.70;;;27.40;60.90;;;;;;5043543;28;20679;-78
2022/07/26 02:21:02;;;;;;;7.47;4.85;;;27.40;61.00;;;;;;5034974;28;20195;-78
2022/07/26 02:23:30;;;;;;;10.18;4.80;;;27.40;61.10;;;;;;5036181;28;20199;-77
2022/07/26 02:25:59;;;;;;;8.07;4.80;;;27.30;61.20;;;;;;5038813;28;20199;-78
2022/07/26 02:28:28;;;;;;;8.13;5.05;;;27.30;61.30;;;;;;5041472;28;20197;-77
2022/07/26 02:30:58;;;;;;;6.72;4.97;;;27.30;61.40;;;;;;5044897;28;20213;-78
2022/07/26 02:33:27;;;;;;;7.95;5.20;;;27.20;61.40;;;;;;5044280;28;20222;-77
2022/07/26 02:35:55;;;;;;;9.63;5.18;;;27.20;61.40;;;;;;5038360;28;20199;-78
2022/07/26 02:38:23;;;;;;;13.98;4.90;;;27.20;61.40;;;;;;5043639;28;20187;-77
2022/07/26 02:40:52;;;;;;;8.38;5.20;;;27.30;61.60;;;;;;5042984;28;20203;-78
2022/07/26 02:43:21;;;;;;;6.53;4.40;;;27.20;61.60;;;;;;5044908;28;20218;-77
2022/07/26 02:45:49;;;;;;;8.32;5.15;;;27.20;61.50;;;;;;5036768;28;20210;-77
2022/07/26 02:48:31;;;;;;;7.85;5.13;;;27.30;61.70;;;;;;5040566;28;20207;-77
2022/07/26 02:51:00;;;;;;;9.20;5.07;;;27.20;61.60;;;;;;5033929;28;20634;-77
2022/07/26 02:53:29;;;;;;;6.60;4.45;;;27.20;61.90;;;;;;5044358;28;20253;-84
2022/07/26 02:55:57;;;;;;;8.88;4.60;;;27.20;61.90;;;;;;5042915;28;20206;-77
2022/07/26 02:58:26;;;;;;;6.72;4.85;;;27.10;61.80;;;;;;5038264;28;20200;-78
2022/07/26 03:00:55;;;;;;;9.02;4.60;;;27.10;61.80;;;;;;5044251;28;20198;-77
2022/07/26 03:03:23;;;;;;;9.63;5.18;;;27.10;61.90;;;;;;5044600;28;20194;-77
2022/07/26 03:05:53;;;;;;;8.20;4.95;;;27.10;62.10;;;;;;5038723;28;20223;-78
2022/07/26 03:08:22;;;;;;;10.45;5.55;;;27.10;62.40;;;;;;5040728;28;20225;-77
2022/07/26 03:10:50;;;;;;;8.90;5.18;;;27.10;62.50;;;;;;5042122;28;20194;-77
2022/07/26 03:13:19;;;;;;;8.00;5.63;;;27.00;62.50;;;;;;5041739;28;20196;-78
2022/07/26 03:15:47;;;;;;;11.23;5.65;;;27.00;62.70;;;;;;5044342;28;20880;-78
2022/07/26 03:18:16;;;;;;;8.30;5.32;;;27.00;62.70;;;;;;5043827;28;20221;-78
2022/07/26 03:20:44;;;;;;;9.35;5.68;;;27.00;62.70;;;;;;5028261;28;20196;-77
2022/07/26 03:23:14;;;;;;;14.63;5.63;;;27.00;62.70;;;;;;5035951;28;20226;-78
2022/07/26 03:25:42;;;;;;;7.65;5.45;;;27.00;62.90;;;;;;5038008;28;20860;-78
2022/07/26 03:28:11;;;;;;;7.82;5.57;;;26.90;62.90;;;;;;5036451;28;20733;-78
2022/07/26 03:30:46;;;;;;;11.30;5.03;;;26.90;63.00;;;;;;5029919;28;20280;-81
2022/07/26 03:33:15;;;;;;;9.05;5.28;;;26.90;62.80;;;;;;5044809;28;20237;-78
2022/07/26 03:35:43;;;;;;;8.93;4.68;;;26.90;63.00;;;;;;5042764;28;20653;-78
2022/07/26 03:38:13;;;;;;;11.55;4.72;;;26.90;63.00;;;;;;5034425;28;20194;-79
2022/07/26 03:40:41;;;;;;;8.60;4.45;;;26.90;63.00;;;;;;5038263;28;20206;-78
2022/07/26 03:43:10;;;;;;;8.85;5.03;;;26.90;63.00;;;;;;5045469;28;20195;-78
2022/07/26 03:45:38;;;;;;;10.18;5.00;;;26.90;63.00;;;;;;5039722;28;20739;-78
2022/07/26 03:48:07;;;;;;;9.48;5.38;;;26.90;63.10;;;;;;5038710;28;20215;-78
2022/07/26 03:50:35;;;;;;;9.38;5.28;;;26.90;63.30;;;;;;5043209;28;20225;-78
2022/07/26 03:53:04;;;;;;;9.50;4.93;;;26.90;63.30;;;;;;5041223;28;20195;-78
2022/07/26 03:58:20;;;;;;;10.82;5.55;;;26.90;63.20;;;;;;5043523;28;20206;-78
2022/07/26 04:00:49;;;;;;;10.43;5.70;;;26.90;63.20;;;;;;5040171;28;20211;-77
2022/07/26 04:03:17;;;;;;;9.85;4.90;;;26.90;63.20;;;;;;5037385;28;20205;-79
2022/07/26 04:05:45;;;;;;;7.95;5.30;;;26.90;63.30;;;;;;5042977;28;20301;-78
2022/07/26 04:08:16;;;;;;;10.57;5.47;;;26.90;63.20;;;;;;5039088;28;20199;-78
2022/07/26 04:10:49;;;;;;;8.75;4.82;;;27.00;63.30;;;;;;5044009;28;20195;-79
2022/07/26 04:13:18;;;;;;;7.47;4.35;;;27.00;63.30;;;;;;5044345;28;20281;-78
2022/07/26 04:15:47;;;;;;;10.98;4.68;;;27.00;63.30;;;;;;5043448;28;20353;-78
2022/07/26 04:18:16;;;;;;;9.30;4.55;;;27.00;63.30;;;;;;5044377;28;20197;-79
2022/07/26 04:20:45;;;;;;;8.57;4.25;;;27.00;63.30;;;;;;5007072;28;20199;-78
2022/07/26 04:23:13;;;;;;;9.82;4.38;;;27.10;63.30;;;;;;5045768;28;20199;-79
2022/07/26 04:25:42;;;;;;;11.55;4.55;;;27.10;63.30;;;;;;5045078;28;20203;-79
2022/07/26 04:28:12;;;;;;;9.90;4.60;;;27.10;63.10;;;;;;5045714;28;20221;-78
2022/07/26 04:30:41;;;;;;;6.97;4.20;;;27.20;63.20;;;;;;5046931;28;20188;-78
2022/07/26 04:33:10;;;;;;;9.77;5.13;;;27.20;63.20;;;;;;5041353;28;20628;-78
2022/07/26 04:35:39;;;;;;;8.20;4.57;;;27.20;63.20;;;;;;5034083;28;20337;-79
2022/07/26 04:38:07;;;;;;;8.60;4.70;;;27.30;63.30;;;;;;5038296;28;20200;-79
2022/07/26 04:40:35;;;;;;;10.55;4.68;;;27.30;63.20;;;;;;5042390;28;20613;-79
2022/07/26 04:43:08;;;;;;;8.38;4.40;;;27.40;63.10;;;;;;5046259;28;20191;-78
2022/07/26 04:45:45;;;;;;;8.30;4.68;;;27.40;63.00;;;;;;5046390;28;20229;-78
2022/07/26 04:48:14;;;;;;;10.50;4.63;;;27.50;63.00;;;;;;5044158;28;20703;-78
2022/07/26 04:50:43;;;;;;;7.95;4.60;;;27.50;63.00;;;;;;5042938;28;20197;-79
2022/07/26 04:53:11;;;;;;;10.30;4.93;;;27.60;63.00;;;;;;5041376;28;20229;-78
2022/07/26 04:55:41;;;;;;;7.85;4.55;;;27.60;62.90;;;;;;5044108;28;20201;-79
2022/07/26 04:58:10;;;;;;;8.98;5.00;;;27.60;62.90;;;;;;5032707;28;20646;-79
2022/07/26 05:00:38;;;;;;;8.60;5.05;;;27.70;62.80;;;;;;5042883;28;20210;-79
2022/07/26 05:03:28;;;;;;;10.18;4.65;;;27.70;62.70;;;;;;5039385;28;20194;-79
2022/07/26 05:05:57;;;;;;;8.65;4.78;;;27.80;62.80;;;;;;5034723;28;20231;-79
2022/07/26 05:08:25;;;;;;;7.43;4.90;;;27.80;62.70;;;;;;5044845;28;20264;-80
2022/07/26 05:10:54;;;;;;;10.27;5.10;;;27.80;62.60;;;;;;5046222;28;20203;-80
2022/07/26 05:13:23;;;;;;;7.32;4.60;;;27.90;62.50;;;;;;5035641;28;20205;-79
2022/07/26 05:15:58;;;;;;;12.45;4.40;;;27.90;62.50;;;;;;5045496;28;20722;-80
2022/07/26 05:18:29;;;;;;;11.45;5.18;;;27.90;62.40;;;;;;5031649;28;20197;-80
2022/07/26 05:21:13;;;;;;;10.65;4.60;;;28.00;62.40;;;;;;5036847;28;20273;-79
2022/07/26 05:23:44;;;;;;;10.18;4.60;;;28.00;62.40;;;;;;5039403;28;20198;-79
2022/07/26 05:26:13;;;;;;;8.55;5.38;;;28.10;62.40;;;;;;5044533;28;20207;-80
2022/07/26 05:28:41;;;;;;;9.13;5.25;;;28.10;62.30;;;;;;5041314;28;20713;-79
2022/07/26 05:31:10;;;;;;;12.40;5.47;;;28.20;62.40;;;;;;5043006;28;20531;-78
2022/07/26 05:33:40;;;;;;;12.23;5.93;;;28.30;62.60;;;;;;5025303;28;20265;-78
2022/07/26 05:36:09;;;;;;;11.77;5.07;;;28.30;62.50;;;;;;5031785;28;20207;-79
2022/07/26 05:38:38;;;;;;;8.38;4.82;;;28.40;62.50;;;;;;5032915;28;20679;-80
2022/07/26 05:41:06;;;;;;;8.48;5.55;;;28.40;62.30;;;;;;5033473;28;20203;-78
2022/07/26 05:43:35;;;;;;;8.15;5.47;;;28.40;62.00;;;;;;5041251;28;20198;-79
2022/07/26 05:46:09;;;;;;;10.10;5.15;;;28.50;61.90;;;;;;5035293;28;20194;-79
2022/07/26 05:48:39;;;;;;;9.55;5.45;;;28.50;61.80;;;;;;5043359;28;20340;-79
2022/07/26 05:51:08;;;;;;;7.20;4.57;;;28.60;61.80;;;;;;5031587;28;20409;-78
2022/07/26 05:53:37;;;;;;;8.75;4.50;;;28.60;61.70;;;;;;5042144;28;20202;-79
2022/07/26 05:56:07;;;;;;;10.40;4.93;;;28.70;61.60;;;;;;5041308;28;20213;-79
2022/07/26 05:58:36;;;;;;;11.45;4.78;;;28.70;61.40;;;;;;5035221;28;20196;-77
2022/07/26 06:01:04;;;;;;;13.20;4.65;;;28.80;61.30;;;;;;5046824;28;20201;-79
2022/07/26 06:03:33;;;;;;;9.00;4.75;;;28.80;61.20;;;;;;5045347;28;20746;-79
2022/07/26 06:06:03;;;;;;;12.07;4.75;;;28.90;61.20;;;;;;5052891;28;20218;-79
2022/07/26 06:08:32;;;;;;;19.73;4.70;;;28.90;61.00;;;;;;5058820;28;20922;-79
2022/07/26 06:11:00;;;;;;;14.27;5.15;;;28.90;60.80;;;;;;5038015;28;20203;-79
2022/07/26 06:13:29;;;;;;;7.80;4.53;;;29.10;61.00;;;;;;5046473;28;20206;-79
2022/07/26 06:15:57;;;;;;;11.63;5.20;;;29.10;60.70;;;;;;5055114;28;20213;-79
2022/07/26 06:18:25;;;;;;;11.77;4.60;;;29.10;60.60;;;;;;5050505;28;20278;-79
2022/07/26 06:20:54;;;;;;;13.45;5.30;;;29.20;60.50;;;;;;5047207;28;20203;-79
2022/07/26 06:23:30;;;;;;;9.70;5.57;;;29.30;60.60;;;;;;5050693;28;20199;-79
2022/07/26 06:26:02;;;;;;;12.65;5.85;;;29.30;60.30;;;;;;5053881;28;20568;-79
2022/07/26 06:28:31;;;;;;;13.27;5.05;;;29.40;60.20;;;;;;5048047;28;20582;-80
2022/07/26 06:30:59;;;;;;;8.50;5.05;;;29.40;60.00;;;;;;5043753;28;21056;-79
2022/07/26 06:33:28;;;;;;;12.18;5.05;;;29.50;59.90;;;;;;5049476;28;20207;-78
2022/07/26 06:35:56;;;;;;;7.85;5.05;;;29.60;59.70;;;;;;5047338;28;20192;-79
2022/07/26 06:38:25;;;;;;;10.13;5.55;;;29.70;59.70;;;;;;5044922;28;20207;-78
2022/07/26 06:40:55;;;;;;;8.65;4.70;;;29.70;59.60;;;;;;5050036;28;20207;-79
2022/07/26 06:43:23;;;;;;;7.88;4.75;;;29.80;59.70;;;;;;5050876;28;20209;-78
2022/07/26 06:45:52;;;;;;;7.18;5.00;;;29.90;59.70;;;;;;5037991;28;20205;-78
2022/07/26 06:48:20;;;;;;;10.40;5.40;;;29.90;59.40;;;;;;5049060;28;20194;-76
2022/07/26 06:50:50;;;;;;;8.48;4.70;;;30.00;59.20;;;;;;5039130;28;20207;-79
2022/07/26 06:53:18;;;;;;;9.98;5.00;;;30.00;59.10;;;;;;5042812;28;20266;-80
2022/07/26 06:55:47;;;;;;;9.68;5.18;;;30.10;59.10;;;;;;5042269;28;20195;-80
2022/07/26 06:58:17;;;;;;;9.32;4.82;;;30.10;59.10;;;;;;5044719;28;20517;-79
2022/07/26 07:00:45;;;;;;;7.95;5.47;;;30.20;59.20;;;;;;5036399;28;20191;-78
2022/07/26 07:03:13;;;;;;;10.40;5.40;;;30.30;59.00;;;;;;5045539;28;20195;-78
2022/07/26 07:05:42;;;;;;;15.80;5.28;;;30.40;58.90;;;;;;5051682;28;20581;-79
2022/07/26 07:08:17;;;;;;;8.32;5.05;;;30.40;58.90;;;;;;5042158;28;20194;-77
2022/07/26 07:10:47;;;;;;;8.50;5.18;;;30.50;58.90;;;;;;5039002;28;20284;-79
2022/07/26 07:13:19;;;;;;;11.48;4.68;;;30.50;58.70;;;;;;5050764;28;20709;-78
2022/07/26 07:15:48;;;;;;;8.02;5.13;;;30.60;58.60;;;;;;5044540;28;20215;-79
2022/07/26 07:18:16;;;;;;;12.52;5.68;;;30.60;58.50;;;;;;5045768;28;20199;-77
2022/07/26 07:20:45;;;;;;;8.32;4.70;;;30.70;58.20;;;;;;5036920;28;20206;-78
2022/07/26 07:23:13;;;;;;;10.75;4.95;;;30.80;58.50;;;;;;5044416;28;20203;-77
2022/07/26 07:25:42;;;;;;;13.38;4.70;;;30.80;58.10;;;;;;5046550;28;20282;-76
2022/07/26 07:28:12;;;;;;;8.82;4.53;;;30.90;58.00;;;;;;5043445;28;20224;-77
2022/07/26 07:30:42;;;;;;;12.50;5.30;;;30.90;57.60;;;;;;5041226;28;20205;-77
2022/07/26 07:33:12;;;;;;;10.95;4.55;;;31.00;57.50;;;;;;5039491;28;20205;-77
2022/07/26 07:35:50;;;;;;;11.00;5.05;;;31.00;56.90;;;;;;5043794;28;20187;-77
2022/07/26 07:38:19;;;;;;;12.85;5.22;;;31.00;56.70;;;;;;5036769;28;20246;-77
2022/07/26 07:40:49;;;;;;;11.30;4.85;;;31.00;56.50;;;;;;5043551;28;20194;-75
2022/07/26 07:43:18;;;;;;;9.60;4.57;;;31.10;56.40;;;;;;5056690;28;20217;-77
2022/07/26 07:45:48;;;;;;;9.32;5.65;;;31.10;56.30;;;;;;5033631;28;20206;-77
2022/07/26 07:48:16;;;;;;;8.70;4.57;;;31.10;56.30;;;;;;5042369;28;20194;-78
2022/07/26 07:50:44;;;;;;;12.38;5.43;;;31.20;56.40;;;;;;5039555;28;20224;-75
2022/07/26 07:53:13;;;;;;;10.30;5.32;;;31.20;56.30;;;;;;5037957;28;20705;-77
2022/07/26 07:55:41;;;;;;;11.27;5.18;;;31.20;56.10;;;;;;5042720;28;20202;-77
2022/07/26 07:58:14;;;;;;;7.97;5.00;;;31.30;56.30;;;;;;5043066;28;20253;-77
2022/07/26 08:00:44;;;;;;;8.95;4.65;;;31.30;56.30;;;;;;5034564;28;20197;-77
2022/07/26 08:03:16;;;;;;;7.70;4.50;;;31.40;56.10;;;;;;5050486;28;20277;-77
2022/07/26 08:05:48;;;;;;;7.68;4.00;;;31.40;55.80;;;;;;5047042;28;20433;-77
2022/07/26 08:08:18;;;;;;;9.25;4.50;;;31.50;55.50;;;;;;5043219;28;20240;-78
2022/07/26 08:10:50;;;;;;;10.02;4.30;;;31.50;55.20;;;;;;5043876;28;20603;-76
2022/07/26 08:13:21;;;;;;;10.40;4.22;;;31.50;55.30;;;;;;5049037;28;20245;-77
2022/07/26 08:15:50;;;;;;;10.32;4.63;;;31.60;55.30;;;;;;5045375;28;20286;-78
2022/07/26 08:18:20;;;;;;;10.63;4.70;;;31.60;55.10;;;;;;5042293;28;20206;-77
2022/07/26 08:20:50;;;;;;;7.13;3.83;;;31.70;55.00;;;;;;5036202;28;20191;-79
2022/07/26 08:23:19;;;;;;;11.88;4.30;;;31.70;54.40;;;;;;5032677;28;20289;-78
2022/07/26 08:25:48;;;;;;;7.88;3.90;;;31.70;53.80;;;;;;5036901;28;20199;-77
2022/07/26 08:28:26;;;;;;;8.27;3.83;;;31.70;54.10;;;;;;5037548;28;20277;-77
2022/07/26 08:31:15;;;;;;;6.53;4.03;;;31.80;53.60;;;;;;5035574;28;20222;-76
2022/07/26 08:33:45;;;;;;;12.50;5.35;;;31.80;53.60;;;;;;5044906;28;20829;-78
2022/07/26 08:36:15;;;;;;;7.55;4.75;;;31.80;53.60;;;;;;5043334;28;20223;-77
2022/07/26 08:38:44;;;;;;;10.88;4.68;;;31.90;53.90;;;;;;5038364;28;20731;-79
2022/07/26 08:41:15;;;;;;;8.23;4.50;;;31.90;53.80;;;;;;5045277;28;20248;-78
2022/07/26 08:43:44;;;;;;;10.43;4.78;;;31.80;53.20;;;;;;5040656;28;20796;-77
2022/07/26 08:46:22;;;;;;;7.25;4.60;;;31.90;53.50;;;;;;5045968;28;20601;-79
2022/07/26 08:48:56;;;;;;;13.85;4.60;;;32.00;53.30;;;;;;5034801;28;20310;-78
2022/07/26 08:51:26;;;;;;;7.43;4.72;;;32.00;53.50;;;;;;5048168;28;20290;-76
2022/07/26 08:53:56;;;;;;;7.82;4.70;;;32.10;53.40;;;;;;5045500;28;20724;-77
2022/07/26 08:56:33;;;;;;;11.52;4.70;;;32.10;53.40;;;;;;5042811;28;20241;-76
2022/07/26 08:59:11;;;;;;;8.52;4.55;;;32.10;53.30;;;;;;5038245;28;20233;-78
2022/07/26 09:01:55;;;;;;;8.88;4.50;;;32.10;53.50;;;;;;5030866;28;20188;-79
2022/07/26 09:04:28;;;;;;;11.60;4.28;;;32.20;53.80;;;;;;5039641;28;20202;-78
2022/07/26 09:07:05;;;;;;;10.18;5.38;;;32.30;53.80;;;;;;5042994;28;20910;-79
2022/07/26 09:09:34;;;;;;;8.30;4.50;;;32.30;53.30;;;;;;5048201;28;20203;-78
2022/07/26 09:12:17;;;;;;;7.10;4.50;;;32.40;53.60;;;;;;5033109;28;20198;-78
2022/07/26 09:14:46;;;;;;;5.47;4.32;;;32.50;53.40;;;;;;5040101;28;20685;-79
2022/07/26 09:17:16;;;;;;;8.05;4.68;;;32.50;53.20;;;;;;5048639;28;20206;-77
2022/07/26 09:19:46;;;;;;;8.35;4.60;;;32.60;52.90;;;;;;5041858;28;20214;-79
2022/07/26 09:22:16;;;;;;;8.50;4.57;;;32.60;52.30;;;;;;5041447;28;20199;-79
2022/07/26 09:24:46;;;;;;;6.90;4.80;;;32.70;52.60;;;;;;5037465;28;20200;-75
2022/07/26 09:27:16;;;;;;;6.07;4.60;;;32.70;52.70;;;;;;5037037;28;20228;-79
2022/07/26 09:29:47;;;;;;;5.88;4.30;;;32.80;52.80;;;;;;5038503;28;20731;-78
2022/07/26 09:32:19;;;;;;;6.20;4.85;;;32.80;52.60;;;;;;5036940;28;20183;-80
2022/07/26 09:34:51;;;;;;;10.73;4.28;;;32.90;52.50;;;;;;5036695;28;20571;-75
2022/07/26 09:37:35;;;;;;;7.13;4.82;;;32.90;52.50;;;;;;5038236;28;20186;-76
2022/07/26 09:40:07;;;;;;;9.82;4.80;;;32.90;52.10;;;;;;5046534;28;20856;-78
2022/07/26 09:42:36;;;;;;;7.38;4.80;;;32.90;52.00;;;;;;5046151;28;20202;-78
2022/07/26 09:45:15;;;;;;;6.45;4.55;;;32.90;52.20;;;;;;5041993;28;20215;-76
2022/07/26 09:47:44;;;;;;;6.35;5.07;;;33.00;52.30;;;;;;5047099;28;20198;-77
2022/07/26 09:50:16;;;;;;;6.22;4.85;;;33.00;52.20;;;;;;5049953;28;20198;-77
2022/07/26 09:52:59;;;;;;;9.90;5.15;;;33.10;52.20;;;;;;5053548;28;20190;-77
2022/07/26 09:55:27;;;;;;;8.55;4.82;;;33.10;52.20;;;;;;5047324;28;20218;-76
2022/07/26 09:58:10;;;;;;;6.63;4.90;;;33.20;52.30;;;;;;5040468;28;20191;-78
2022/07/26 10:00:38;;;;;;;9.57;4.80;;;33.20;52.10;;;;;;5047054;28;20653;-77
2022/07/26 10:03:07;;;;;;;8.25;4.80;;;33.30;52.00;;;;;;5040434;28;20205;-77
2022/07/26 10:05:38;;;;;;;6.10;4.57;;;33.30;51.40;;;;;;5048316;28;20223;-76
2022/07/26 10:08:07;;;;;;;7.60;5.07;;;33.30;51.00;;;;;;5051554;28;20202;-79
2022/07/26 10:10:42;;;;;;;8.60;5.28;;;33.30;51.00;;;;;;5042231;28;20222;-79
2022/07/26 10:13:10;;;;;;;6.10;4.68;;;33.50;51.40;;;;;;5044246;28;20194;-77
2022/07/26 10:15:43;;;;;;;6.90;4.93;;;33.50;51.40;;;;;;5041010;28;20203;-78
2022/07/26 10:18:46;;;;;;;6.43;4.43;;;33.60;51.20;;;;;;5046906;28;20221;-78
2022/07/26 10:21:22;;;;;;;6.00;4.72;;;33.60;51.00;;;;;;5039559;28;20225;-78
2022/07/26 10:23:52;;;;;;;7.00;4.72;;;33.70;51.40;;;;;;5045549;28;20190;-78
2022/07/26 10:26:41;;;;;;;8.57;5.10;;;33.70;50.20;;;;;;5046311;28;20210;-77
2022/07/26 10:29:28;;;;;;;6.72;4.47;;;33.80;50.10;;;;;;5038547;28;20195;-75
2022/07/26 10:32:19;;;;;;;8.20;4.95;;;33.80;49.80;;;;;;5049001;28;20207;-78
2022/07/26 10:34:48;;;;;;;5.93;4.75;;;33.90;50.20;;;;;;5044435;28;20689;-78
2022/07/26 10:37:28;;;;;;;7.50;5.30;;;34.00;50.00;;;;;;5040388;28;20587;-80
2022/07/26 10:40:21;;;;;;;6.25;4.68;;;34.00;50.00;;;;;;5047127;28;20636;-79
2022/07/26 10:42:49;;;;;;;6.75;4.50;;;34.10;50.20;;;;;;5041118;28;20655;-77
2022/07/26 10:45:21;;;;;;;8.63;5.00;;;34.00;50.10;;;;;;5044882;28;20203;-76
2022/07/26 10:48:23;;;;;;;7.97;4.55;;;34.10;50.00;;;;;;5057263;28;20190;-76
2022/07/26 10:50:54;;;;;;;6.10;4.75;;;34.20;49.80;;;;;;5000237;28;20211;-78
2022/07/26 10:53:26;;;;;;;6.53;4.85;;;34.20;49.80;;;;;;4997215;28;20204;-79
2022/07/26 10:55:56;;;;;;;6.32;4.90;;;34.30;50.00;;;;;;5019800;28;20195;-77
2022/07/26 10:58:26;;;;;;;8.52;4.47;;;34.30;49.90;;;;;;5037701;28;20219;-76
2022/07/26 11:00:56;;;;;;;8.20;5.13;;;34.40;49.70;;;;;;5037636;28;20187;-77
2022/07/26 11:03:25;;;;;;;6.30;4.85;;;34.50;49.30;;;;;;5044029;28;20203;-77
2022/07/26 11:05:53;;;;;;;6.80;5.07;;;34.60;49.40;;;;;;5039115;28;20228;-78
2022/07/26 11:08:30;;;;;;;8.68;4.90;;;34.50;49.10;;;;;;5045948;28;20569;-78
2022/07/26 11:10:58;;;;;;;7.32;4.97;;;34.60;49.00;;;;;;5042586;28;20196;-78
2022/07/26 11:13:27;;;;;;;6.88;5.30;;;34.60;48.80;;;;;;5033469;28;20210;-77
2022/07/26 11:16:00;;;;;;;6.10;5.07;;;34.70;48.90;;;;;;5037382;28;20199;-79
2022/07/26 11:18:31;;;;;;;7.82;5.30;;;34.70;48.70;;;;;;5033601;28;20261;-78
2022/07/26 11:21:10;;;;;;;9.30;5.50;;;34.80;48.80;;;;;;5034675;28;20233;-78
2022/07/26 11:23:42;;;;;;;6.80;5.47;;;34.80;48.70;;;;;;5040964;28;20241;-77
2022/07/26 11:26:17;;;;;;;6.50;5.38;;;34.90;48.50;;;;;;5037821;28;20202;-79
2022/07/26 11:28:55;;;;;;;8.30;5.57;;;34.80;48.10;;;;;;5041725;28;20562;-75
2022/07/26 11:31:27;;;;;;;8.45;5.85;;;34.90;48.40;;;;;;5035660;28;20211;-77
2022/07/26 11:34:21;;;;;;;9.80;5.85;;;34.90;48.10;;;;;;5041281;28;20308;-78
2022/07/26 11:36:51;;;;;;;7.22;5.07;;;35.00;48.10;;;;;;5035065;28;20201;-78
2022/07/26 11:39:24;;;;;;;8.07;5.63;;;34.90;47.80;;;;;;5050837;28;20206;-78
2022/07/26 11:41:57;;;;;;;9.18;5.20;;;35.00;48.00;;;;;;5050043;28;20183;-78
2022/07/26 11:44:28;;;;;;;9.68;5.60;;;35.00;48.10;;;;;;5035161;28;20206;-78
2022/07/26 11:46:57;;;;;;;6.53;5.15;;;34.90;47.80;;;;;;5042271;28;20192;-77
2022/07/26 11:49:28;;;;;;;8.27;5.15;;;35.00;47.80;;;;;;5049097;28;20195;-78
2022/07/26 11:52:17;;;;;;;8.00;5.53;;;35.00;47.70;;;;;;5046671;28;20225;-79
2022/07/26 11:54:54;;;;;;;7.55;5.35;;;35.00;47.60;;;;;;5041179;28;20249;-78
2022/07/26 11:57:28;;;;;;;5.75;4.35;;;34.90;47.30;;;;;;5053574;28;20641;-78
2022/07/26 11:59:59;;;;;;;7.15;5.32;;;34.90;47.60;;;;;;5047122;28;20209;-77
2022/07/26 12:02:29;;;;;;;7.25;5.45;;;35.00;47.50;;;;;;5047148;28;20197;-77
2022/07/26 12:05:14;;;;;;;10.60;5.28;;;35.00;47.50;;;;;;5037128;28;20286;-81
2022/07/26 12:07:57;;;;;;;6.40;4.85;;;35.10;47.40;;;;;;5052381;28;20256;-78
2022/07/26 12:10:28;;;;;;;9.23;5.25;;;35.20;47.70;;;;;;5037838;28;20228;-79
2022/07/26 12:13:13;;;;;;;8.80;5.75;;;35.30;47.70;;;;;;5045121;28;20231;-79
2022/07/26 12:15:46;;;;;;;7.50;4.90;;;35.30;47.20;;;;;;5033378;28;20322;-80
2022/07/26 12:18:25;;;;;;;8.18;6.03;;;35.30;47.10;;;;;;5046388;28;20245;-79
2022/07/26 12:21:02;;;;;;;8.65;5.55;;;35.30;47.30;;;;;;5044941;28;20198;-78
2022/07/26 12:23:46;;;;;;;7.20;5.30;;;35.40;47.20;;;;;;5045380;28;20195;-78
2022/07/26 12:26:21;;;;;;;7.13;5.20;;;35.40;48.00;;;;;;5040423;28;20262;-81
2022/07/26 12:28:50;;;;;;;7.28;4.68;;;35.40;47.20;;;;;;5050341;28;20633;-77
2022/07/26 12:31:26;;;;;;;7.55;5.43;;;35.30;47.20;;;;;;5052512;28;20716;-78
2022/07/26 12:33:55;;;;;;;7.15;5.45;;;35.40;47.10;;;;;;5037482;28;20576;-79
2022/07/26 12:36:25;;;;;;;8.35;5.05;;;35.30;46.90;;;;;;5047251;28;20254;-78
2022/07/26 12:38:58;;;;;;;6.70;5.15;;;35.30;46.90;;;;;;5038811;28;20198;-78
2022/07/26 12:41:36;;;;;;;9.80;4.55;;;35.30;46.90;;;;;;5045371;28;20206;-77
2022/07/26 12:44:06;;;;;;;14.60;5.07;;;35.20;46.60;;;;;;5047854;28;20910;-78
2022/07/26 12:46:36;;;;;;;6.60;4.93;;;35.20;46.60;;;;;;5051100;28;20217;-79
2022/07/26 12:49:05;;;;;;;6.63;4.97;;;35.10;46.60;;;;;;5050651;28;20834;-78
2022/07/26 12:51:35;;;;;;;7.40;5.25;;;35.20;46.30;;;;;;5045586;28;20327;-78
2022/07/26 12:54:05;;;;;;;7.55;5.57;;;35.20;46.10;;;;;;5055372;28;20206;-78
2022/07/26 12:56:35;;;;;;;7.40;4.85;;;35.30;46.00;;;;;;5053393;28;20710;-78
2022/07/26 12:59:04;;;;;;;6.75;4.90;;;35.30;45.90;;;;;;5042901;28;20195;-78
2022/07/26 13:01:32;;;;;;;7.63;4.68;;;35.40;46.00;;;;;;5062064;28;20198;-78
2022/07/26 13:04:01;;;;;;;6.43;4.72;;;35.50;46.00;;;;;;5036391;28;20226;-79
2022/07/26 13:06:31;;;;;;;6.88;4.60;;;35.60;45.90;;;;;;5042266;28;20234;-79
2022/07/26 13:09:00;;;;;;;10.10;5.00;;;35.70;45.50;;;;;;5057091;28;20293;-79